Hauptseite
METAR-TAF:

METAR-TAF

Flughäfen :

NATO-Flugplatz Geilenkirchen

Geilenkirchen, Deutschland

Breite: 50-57-39N, Länge: 006-2-33E, Höhe: 90 m

Beobachtung

Neuester Wetterbericht von vor 42 Minuten, um 12:50 UTC
Wind 4 kt aus Süd/Südwest
Temperatur 25°C
Luftfeuchtigkeit 39%
Luftdruck 1012 hPa
Sichtweite 10 km oder mehr
keine Wolken unter 1500 m und keine Kumulonimbus oder Gewitterwolken

METAR: ETNG 151250Z 20004KT CAVOK 25/10 Q1012 NOSIG

Zeit: 15:32 (13:32 UTC)

Prognose

Neuester Wetterbericht von vor 2 Stunden und 32 Minuten, um 11:00 UTC
Gültige Prognose vom 15 um 12 UTC bis 16 um 03 UTC
Wind 6 kt aus Süd/Südwest
Sichtweite 10 km oder mehr
keine Wolken unter 1500 m und keine Kumulonimbus oder Gewitterwolken
Übergehend zu
vom 15 um 15 UTC bis 15 um 17 UTC
Wind 3 kt aus unterschiedlichen Richtungen

TAF: ETNG 151100Z 1512/1603 21006KT CAVOK BECMG 1515/1517 VRB03KT

Wetterbeobachtungen und Prognosen von mehr als 4000 Flughäfen (METAR und TAF Bericht).

Die verfügbaren Stationen werden durch gelbe und rote Markierungen auf der Karte dargestellt.

Führen Sie die Maus auf sie, um den Namen der Station zu sehen.

Darauf klicken, um die Beobachtung von Wetterbeobachtungen und Prognosen zu sehen.

Um die Karte zu ändern : klicken Sie auf den grünen Tasten mit einem schwarzen Kreuz Zum Vergrößern, auf den grünen Button mit einem Gedankenstrich zu verkleinern, oder auf die grünen Pfeile für benachbarte Karten.


METAR-TAF: